Time;durP1;ratioP1;P1;durP2;ratioP2;P2;SDS_P1;SDS_P2;PMS_P1;PMS_P2;Temp;Humidity;BMP_temperature;BMP_pressure;BME280_temperature;BME280_humidity;BME280_pressure;Samples;Min_cycle;Max_cycle;Signal;HPM_P1;HPM_P2
2023/09/19 00:02:18;;;;;;;3.70;1.35;;;;;;;18.71;41.94;100474.09;4899971;29;20222;-74
2023/09/19 00:04:46;;;;;;;4.20;1.40;;;;;;;18.66;41.94;100473.81;4883974;29;20471;-74
2023/09/19 00:07:14;;;;;;;4.50;1.55;;;;;;;18.64;42.45;100473.13;4882070;29;20062;-74
2023/09/19 00:09:44;;;;;;;3.03;1.27;;;;;;;18.62;42.17;100479.94;4901726;29;20060;-74
2023/09/19 00:12:13;;;;;;;2.85;1.25;;;;;;;18.59;42.26;100472.88;4900859;29;20056;-74
2023/09/19 00:14:41;;;;;;;4.45;1.35;;;;;;;18.58;42.50;100486.94;4900231;29;20048;-74
2023/09/19 00:17:09;;;;;;;4.60;1.60;;;;;;;18.56;42.55;100484.34;4900000;29;20648;-74
2023/09/19 00:19:38;;;;;;;4.70;1.50;;;;;;;18.57;42.04;100482.44;4900811;29;20131;-74
2023/09/19 00:22:07;;;;;;;5.68;1.60;;;;;;;18.53;41.86;100493.06;4883922;29;20416;-74
2023/09/19 00:24:35;;;;;;;5.45;1.90;;;;;;;18.52;42.78;100483.03;4882041;29;20056;-74
2023/09/19 00:27:03;;;;;;;3.45;1.20;;;;;;;18.51;42.71;100487.72;4899008;29;20123;-74
2023/09/19 00:29:32;;;;;;;2.83;1.30;;;;;;;18.50;42.28;100483.22;4898984;29;20056;-74
2023/09/19 00:32:02;;;;;;;4.00;1.42;;;;;;;18.49;42.27;100484.28;4899914;29;20056;-74
2023/09/19 00:34:34;;;;;;;3.10;1.23;;;;;;;18.50;42.50;100496.22;4883186;29;20060;-74
2023/09/19 00:37:04;;;;;;;3.30;1.30;;;;;;;18.49;42.22;100492.59;4897416;29;20062;-74
2023/09/19 00:39:32;;;;;;;3.90;1.27;;;;;;;18.47;42.67;100496.59;4882172;29;20052;-74
2023/09/19 00:42:04;;;;;;;3.25;1.27;;;;;;;18.47;42.71;100507.69;4881012;29;20516;-74
2023/09/19 00:44:34;;;;;;;3.88;1.45;;;;;;;18.43;42.01;100496.09;4899510;29;20066;-74
2023/09/19 00:47:03;;;;;;;5.38;1.25;;;;;;;18.43;42.35;100501.66;4880983;29;20047;-74
2023/09/19 00:49:32;;;;;;;3.70;1.30;;;;;;;18.41;42.03;100506.53;4900396;29;20052;-74
2023/09/19 00:52:00;;;;;;;5.43;1.50;;;;;;;18.40;42.26;100496.50;4899418;29;20515;-74
2023/09/19 00:54:30;;;;;;;2.42;1.30;;;;;;;18.41;42.01;100508.44;4883448;29;20048;-74
2023/09/19 00:56:58;;;;;;;4.45;1.33;;;;;;;18.37;42.34;100507.13;4901846;29;20135;-73
2023/09/19 00:59:26;;;;;;;5.50;1.40;;;;;;;18.35;41.58;100503.66;4908082;29;20131;-75
2023/09/19 01:01:56;;;;;;;4.72;1.30;;;;;;;18.34;42.26;100500.03;4888582;29;20524;-74
2023/09/19 01:04:24;;;;;;;4.25;1.40;;;;;;;18.30;41.58;100504.28;4906669;29;20136;-74
2023/09/19 01:06:53;;;;;;;4.20;1.52;;;;;;;18.28;41.46;100506.38;4906212;29;20076;-74
2023/09/19 01:09:21;;;;;;;4.10;1.48;;;;;;;18.28;41.42;100511.03;4889685;29;20047;-74
2023/09/19 01:11:54;;;;;;;4.32;1.38;;;;;;;18.27;41.74;100510.19;4889014;29;20076;-74
2023/09/19 01:14:32;;;;;;;4.25;1.30;;;;;;;18.26;41.97;100521.44;4889020;29;20159;-74
2023/09/19 01:17:06;;;;;;;2.92;1.35;;;;;;;18.24;41.90;100523.53;4887904;29;20059;-74
2023/09/19 01:20:14;;;;;;;3.65;1.50;;;;;;;18.22;41.98;100532.06;4907472;29;20056;-74
2023/09/19 01:22:54;;;;;;;4.55;1.27;;;;;;;18.20;42.16;100525.88;4880031;29;21314;-74
2023/09/19 01:25:52;;;;;;;3.72;1.33;;;;;;;18.18;41.56;100539.03;4890120;29;20076;-74
2023/09/19 01:28:36;;;;;;;4.60;1.27;;;;;;;18.18;41.58;100532.63;4893443;29;20075;-74
2023/09/19 01:31:11;;;;;;;4.22;1.35;;;;;;;18.18;41.58;100532.63;4909756;29;20048;-74
2023/09/19 01:34:00;;;;;;;5.03;1.45;;;;;;;18.15;41.41;100533.88;4893713;29;20091;-74
2023/09/19 01:36:30;;;;;;;5.90;1.33;;;;;;;18.11;41.78;100535.31;4892051;29;20516;-73
2023/09/19 01:39:00;;;;;;;4.88;1.60;;;;;;;18.10;41.99;100542.75;4893545;29;20059;-74
2023/09/19 01:41:39;;;;;;;4.90;1.50;;;;;;;18.11;41.58;100544.50;4894149;29;20491;-74
2023/09/19 01:44:11;;;;;;;6.60;1.38;;;;;;;18.07;42.05;100537.59;4894230;29;20145;-74
2023/09/19 01:46:42;;;;;;;5.07;1.60;;;;;;;18.04;41.82;100546.31;4890730;29;20052;-73
2023/09/19 01:49:23;;;;;;;6.20;1.58;;;;;;;18.06;42.09;100551.66;4910846;29;20048;-73
2023/09/19 01:52:06;;;;;;;4.93;1.63;;;;;;;18.04;41.95;100554.63;4910313;29;20062;-76
2023/09/19 01:54:40;;;;;;;;;;;;;;;17.72;42.81;100549.41;4894306;29;20051;-73
2023/09/19 01:57:15;;;;;;;5.53;1.10;;;;;;;17.99;41.74;100550.69;4892497;29;20310;-74
2023/09/19 01:59:49;;;;;;;4.60;1.50;;;;;;;18.01;42.11;100554.13;4893505;29;20071;-74
2023/09/19 02:02:22;;;;;;;5.88;1.98;;;;;;;18.01;42.32;100554.97;4910366;29;20072;-74
2023/09/19 02:04:51;;;;;;;3.30;1.30;;;;;;;17.97;41.76;100559.19;4893408;29;20627;-73
2023/09/19 02:07:19;;;;;;;5.53;1.95;;;;;;;17.96;42.00;100563.00;4910078;29;20210;-74
2023/09/19 02:09:47;;;;;;;4.63;1.50;;;;;;;17.96;41.83;100557.47;4910935;29;20055;-74
2023/09/19 02:12:15;;;;;;;2.80;1.38;;;;;;;17.95;42.16;100557.66;4890846;29;20080;-75
2023/09/19 02:14:43;;;;;;;3.17;1.33;;;;;;;17.95;41.87;100558.53;4891839;29;20604;-74
2023/09/19 02:17:12;;;;;;;4.10;1.35;;;;;;;17.94;41.89;100561.47;4892172;29;20770;-74
2023/09/19 02:19:41;;;;;;;3.83;1.50;;;;;;;17.95;41.85;100566.81;4911645;29;20472;-74
2023/09/19 02:22:10;;;;;;;3.67;1.50;;;;;;;17.93;42.11;100571.69;4911059;29;20159;-74
2023/09/19 02:24:39;;;;;;;4.43;1.50;;;;;;;17.92;41.67;100564.44;4892254;29;20111;-74
2023/09/19 02:27:07;;;;;;;4.40;1.48;;;;;;;17.92;41.44;100567.19;4908780;29;21006;-74
2023/09/19 02:29:35;;;;;;;4.43;1.35;;;;;;;17.91;41.40;100584.84;4927395;23;20059;-84
2023/09/19 02:32:03;;;;;;;5.25;1.67;;;;;;;17.90;42.06;100582.25;4941056;28;20051;-83
2023/09/19 02:34:32;;;;;;;5.25;1.45;;;;;;;17.89;41.64;100589.75;4941132;28;20368;-83
2023/09/19 02:37:04;;;;;;;5.38;1.23;;;;;;;17.90;41.60;100596.09;4958015;28;20179;-83
2023/09/19 02:39:33;;;;;;;4.90;1.63;;;;;;;17.84;41.73;100591.34;4927967;29;20071;-84
2023/09/19 02:42:02;;;;;;;3.85;1.20;;;;;;;17.88;41.49;100592.69;4919817;29;20588;-82
2023/09/19 02:44:30;;;;;;;4.32;1.25;;;;;;;17.85;41.41;100591.16;4922810;28;20784;-83
2023/09/19 02:46:58;;;;;;;4.25;1.40;;;;;;;17.86;41.72;100598.41;4921658;29;20200;-83
2023/09/19 02:49:27;;;;;;;4.57;1.55;;;;;;;17.83;41.70;100592.38;4919493;29;20705;-83
2023/09/19 02:51:58;;;;;;;3.55;1.40;;;;;;;17.83;41.66;100593.25;4922451;29;20167;-83
2023/09/19 02:54:28;;;;;;;4.88;1.48;;;;;;;17.85;41.57;100595.81;4956833;28;20138;-83
2023/09/19 02:56:56;;;;;;;3.92;1.15;;;;;;;17.82;41.80;100594.28;4920289;29;20491;-83
2023/09/19 02:59:24;;;;;;;4.40;1.50;;;;;;;17.81;41.52;100591.72;4919022;29;20056;-83
2023/09/19 03:01:54;;;;;;;4.22;1.35;;;;;;;17.80;41.27;100598.31;4921789;29;20186;-85
2023/09/19 03:04:22;;;;;;;5.10;1.65;;;;;;;17.79;41.68;100593.81;4924009;29;20545;-83
2023/09/19 03:06:52;;;;;;;4.90;1.48;;;;;;;17.79;41.10;100602.13;4921246;28;20106;-84
2023/09/19 03:09:20;;;;;;;3.92;1.15;;;;;;;17.78;41.78;100601.25;4919362;29;20506;-84
2023/09/19 03:11:50;;;;;;;4.95;1.40;;;;;;;17.79;41.41;100607.66;4917672;29;20575;-83
2023/09/19 03:14:20;;;;;;;3.67;1.20;;;;;;;17.75;41.03;100612.69;4923300;28;20150;-84
2023/09/19 03:16:49;;;;;;;3.92;1.30;;;;;;;17.74;41.09;100613.75;4933503;29;20484;-83
2023/09/19 03:19:17;;;;;;;4.13;1.40;;;;;;;17.72;41.42;100622.22;4917375;29;20074;-83
2023/09/19 03:21:46;;;;;;;3.08;1.33;;;;;;;17.73;40.97;100618.38;4916860;29;20051;-83
2023/09/19 03:24:14;;;;;;;4.40;1.45;;;;;;;17.73;40.60;100612.00;4955488;28;20079;-82
2023/09/19 03:26:42;;;;;;;4.78;1.40;;;;;;;17.72;40.98;100610.28;4924714;29;20413;-83
2023/09/19 03:29:13;;;;;;;4.20;1.40;;;;;;;17.72;40.56;100615.81;4918501;28;20070;-83
2023/09/19 03:31:42;;;;;;;4.15;1.48;;;;;;;17.69;40.88;100602.34;4918652;29;20059;-83
2023/09/19 03:34:10;;;;;;;4.30;1.65;;;;;;;17.68;40.92;100608.94;4922618;29;20078;-83
2023/09/19 03:36:39;;;;;;;4.10;1.38;;;;;;;17.67;41.06;100604.44;4954263;28;20171;-83
2023/09/19 03:39:07;;;;;;;3.42;1.15;;;;;;;17.65;40.64;100607.38;4926019;29;20539;-83
2023/09/19 03:41:36;;;;;;;4.40;1.55;;;;;;;17.64;40.68;100613.13;4925239;29;20383;-84
2023/09/19 03:44:05;;;;;;;4.70;1.27;;;;;;;17.64;41.05;100615.91;4920233;29;20054;-84
2023/09/19 03:46:36;;;;;;;4.35;1.30;;;;;;;17.65;40.97;100609.28;4920964;29;20059;-84
2023/09/19 03:49:04;;;;;;;4.40;1.45;;;;;;;17.62;41.16;100604.16;4925901;28;20060;-83
2023/09/19 03:51:34;;;;;;;3.88;1.23;;;;;;;17.62;41.04;100599.47;4934232;29;20118;-83
2023/09/19 03:54:04;;;;;;;3.80;1.40;;;;;;;17.63;40.71;100601.19;4941411;28;20048;-83
2023/09/19 03:56:32;;;;;;;5.20;1.63;;;;;;;17.61;40.99;100605.19;4923608;29;20670;-83
2023/09/19 03:59:00;;;;;;;4.82;1.40;;;;;;;17.62;41.19;100605.00;4921050;29;20443;-83
2023/09/19 04:01:30;;;;;;;3.63;1.45;;;;;;;17.63;40.94;100608.63;4925642;29;20055;-84
2023/09/19 04:04:07;;;;;;;4.72;1.20;;;;;;;17.65;41.22;100612.06;4940967;29;20099;-83
2023/09/19 04:06:37;;;;;;;4.03;1.35;;;;;;;17.61;40.63;100605.19;4941563;29;20071;-83
2023/09/19 04:09:06;;;;;;;4.45;1.50;;;;;;;17.62;40.74;100612.44;4938076;29;20055;-84
2023/09/19 04:11:34;;;;;;;4.15;1.30;;;;;;;17.59;40.81;100601.75;4954425;28;20051;-84
2023/09/19 04:14:04;;;;;;;5.32;1.55;;;;;;;17.61;40.68;100611.59;4922973;29;20055;-83
2023/09/19 04:16:32;;;;;;;4.05;1.60;;;;;;;17.59;40.43;100608.13;4918141;29;20044;-83
2023/09/19 04:19:03;;;;;;;4.50;1.58;;;;;;;17.58;40.68;100611.09;4917515;29;20058;-82
2023/09/19 04:21:31;;;;;;;5.10;1.40;;;;;;;17.56;40.46;100604.91;4919723;29;20066;-84
2023/09/19 04:23:59;;;;;;;4.25;1.70;;;;;;;17.55;40.88;100609.56;4921620;29;20139;-83
2023/09/19 04:26:27;;;;;;;4.45;1.50;;;;;;;17.53;40.96;100606.13;4936446;29;20607;-83
2023/09/19 04:28:56;;;;;;;3.92;1.58;;;;;;;17.53;40.60;100608.88;4917833;28;20047;-83
2023/09/19 04:31:24;;;;;;;4.60;1.35;;;;;;;17.53;41.02;100610.78;4940178;28;20057;-83
2023/09/19 04:33:52;;;;;;;4.82;1.60;;;;;;;17.51;40.42;100612.88;4921675;29;20416;-84
2023/09/19 04:36:22;;;;;;;4.35;1.50;;;;;;;17.52;40.47;100614.59;4923048;29;20538;-85
2023/09/19 04:39:04;;;;;;;5.93;1.10;;;;;;;17.48;40.42;100619.66;4920630;29;20051;-85
2023/09/19 04:41:33;;;;;;;4.65;1.33;;;;;;;17.46;40.80;100624.53;4919694;29;20659;-84
2023/09/19 04:44:01;;;;;;;3.38;1.35;;;;;;;17.46;40.49;100620.88;4920659;28;20090;-84
2023/09/19 04:46:29;;;;;;;5.30;1.35;;;;;;;17.44;40.87;100617.44;4918063;29;20056;-84
2023/09/19 04:48:57;;;;;;;5.10;1.45;;;;;;;17.42;40.91;100623.16;4918586;28;20598;-84
2023/09/19 04:51:30;;;;;;;3.83;1.30;;;;;;;17.43;40.59;100615.72;4919795;29;20055;-84
2023/09/19 04:53:58;;;;;;;3.33;1.20;;;;;;;17.37;40.91;100620.94;4920185;28;20051;-84
2023/09/19 04:56:28;;;;;;;4.07;1.45;;;;;;;17.38;40.66;100627.34;4922747;29;20603;-83
2023/09/19 04:58:58;;;;;;;5.63;1.50;;;;;;;17.36;41.20;100627.53;4920519;29;20060;-83
2023/09/19 05:01:26;;;;;;;4.35;1.65;;;;;;;17.36;40.71;100624.75;4916423;29;20130;-83
2023/09/19 05:03:55;;;;;;;6.65;1.60;;;;;;;17.37;40.97;100628.38;4921525;29;20071;-83
2023/09/19 05:06:23;;;;;;;6.00;1.55;;;;;;;17.37;41.14;100631.16;4921314;29;20143;-84
2023/09/19 05:08:52;;;;;;;4.70;1.40;;;;;;;17.39;40.97;100629.94;4937652;29;20063;-84
2023/09/19 05:11:21;;;;;;;6.05;1.65;;;;;;;17.36;41.25;100638.59;4936909;28;20133;-83
2023/09/19 05:13:50;;;;;;;2.97;1.33;;;;;;;17.36;41.11;100643.25;4918675;29;20055;-83
2023/09/19 05:16:18;;;;;;;5.70;1.40;;;;;;;17.37;40.92;100639.44;4955164;28;20547;-83
2023/09/19 05:18:46;;;;;;;4.72;1.55;;;;;;;17.36;40.84;100654.31;4930654;28;20082;-83
2023/09/19 05:21:14;;;;;;;5.43;1.90;;;;;;;17.36;40.88;100646.88;4918394;29;20118;-84
2023/09/19 05:23:42;;;;;;;5.53;1.45;;;;;;;17.35;40.88;100659.00;4919657;29;20064;-83
2023/09/19 05:26:12;;;;;;;3.70;1.20;;;;;;;17.38;40.31;100663.31;4920053;29;20123;-83
2023/09/19 05:28:40;;;;;;;5.97;1.50;;;;;;;17.35;40.51;100661.75;4932829;28;20535;-84
2023/09/19 05:31:08;;;;;;;3.33;1.35;;;;;;;17.35;40.36;100663.66;4919547;29;20040;-84
2023/09/19 05:33:36;;;;;;;4.47;1.45;;;;;;;17.35;40.06;100674.72;4920410;29;20051;-84
2023/09/19 05:36:05;;;;;;;3.38;1.35;;;;;;;17.33;40.42;100680.44;4922038;29;20664;-84
2023/09/19 05:38:32;;;;;;;4.18;1.50;;;;;;;17.32;40.01;100681.47;4927561;29;20129;-84
2023/09/19 05:41:01;;;;;;;3.88;1.30;;;;;;;17.32;40.11;100684.25;4933403;29;20059;-83
2023/09/19 05:43:31;;;;;;;4.68;1.40;;;;;;;17.32;39.84;100692.53;4926941;29;20578;-83
2023/09/19 05:46:01;;;;;;;5.68;1.60;;;;;;;17.33;40.29;100701.72;4920933;29;20055;-84
2023/09/19 05:48:28;;;;;;;4.88;1.90;;;;;;;17.29;39.98;100700.38;4918123;29;20141;-84
2023/09/19 05:50:57;;;;;;;4.93;1.48;;;;;;;17.29;39.95;100703.13;4970131;28;20150;-83
2023/09/19 05:53:25;;;;;;;4.20;2.05;;;;;;;17.28;40.07;100695.88;4935981;29;20141;-84
2023/09/19 05:55:53;;;;;;;4.68;1.55;;;;;;;17.28;39.90;100704.16;4937792;29;20055;-83
2023/09/19 05:58:21;;;;;;;4.97;1.50;;;;;;;17.25;40.00;100710.91;4922048;29;20048;-83
2023/09/19 06:00:52;;;;;;;3.65;1.73;;;;;;;17.28;40.10;100713.34;4917245;29;20063;-83
2023/09/19 06:03:20;;;;;;;4.75;1.50;;;;;;;17.26;40.27;100722.84;4921643;29;20074;-83
2023/09/19 06:05:49;;;;;;;4.47;1.25;;;;;;;17.25;40.46;100724.75;4919985;29;20063;-83
2023/09/19 06:08:17;;;;;;;4.20;1.45;;;;;;;17.25;40.24;100730.28;4922448;29;20047;-83
2023/09/19 06:10:46;;;;;;;4.80;1.40;;;;;;;17.25;40.66;100737.72;4922633;29;20062;-82
2023/09/19 06:13:15;;;;;;;4.60;1.55;;;;;;;17.26;40.31;100734.78;4920965;29;20039;-82
2023/09/19 06:15:43;;;;;;;4.97;1.60;;;;;;;17.27;40.11;100739.25;4925614;28;20142;-82
2023/09/19 06:18:19;;;;;;;4.68;1.48;;;;;;;17.27;40.45;100736.50;4925206;29;20059;-83
2023/09/19 06:20:48;;;;;;;5.00;1.58;;;;;;;17.25;40.08;100733.03;4922340;29;20415;-83
2023/09/19 06:23:16;;;;;;;6.38;1.80;;;;;;;17.27;40.64;100727.34;4921013;29;20055;-84
2023/09/19 06:25:45;;;;;;;3.38;1.20;;;;;;;17.27;40.76;100733.72;4923904;29;20055;-84
2023/09/19 06:28:13;;;;;;;4.43;1.40;;;;;;;17.26;40.17;100732.00;4923395;29;20083;-84
2023/09/19 06:30:42;;;;;;;4.85;1.50;;;;;;;17.26;40.71;100731.13;4922349;29;20058;-84
2023/09/19 06:33:11;;;;;;;5.13;1.20;;;;;;;17.25;40.47;100730.28;4925822;29;20478;-84
2023/09/19 06:35:41;;;;;;;3.80;1.55;;;;;;;17.27;40.94;100733.72;4925211;29;20640;-85
2023/09/19 06:38:12;;;;;;;3.78;1.33;;;;;;;17.26;40.85;100729.25;4942604;29;20147;-84
2023/09/19 06:40:42;;;;;;;3.90;1.40;;;;;;;17.26;40.57;100731.13;4925936;29;20170;-84
2023/09/19 06:43:11;;;;;;;5.32;1.45;;;;;;;17.28;40.47;100724.41;4925557;29;20054;-84
2023/09/19 06:45:39;;;;;;;6.18;1.40;;;;;;;17.25;41.01;100727.50;4921983;29;20555;-84
2023/09/19 06:48:09;;;;;;;3.92;1.33;;;;;;;17.27;40.58;100730.97;4925370;29;20086;-84
2023/09/19 06:50:38;;;;;;;5.88;1.50;;;;;;;17.28;40.94;100732.69;4918503;29;20060;-84
2023/09/19 06:53:07;;;;;;;4.43;1.50;;;;;;;17.30;41.03;100733.38;4924046;28;20058;-83
2023/09/19 06:55:36;;;;;;;5.38;1.60;;;;;;;17.28;40.91;100724.41;4939469;29;20166;-84
2023/09/19 06:58:06;;;;;;;4.00;1.40;;;;;;;17.31;41.04;100734.25;4956782;28;20404;-83
2023/09/19 07:00:36;;;;;;;5.88;1.73;;;;;;;17.31;40.88;100739.78;4924839;29;20085;-84
2023/09/19 07:03:08;;;;;;;4.95;1.90;;;;;;;17.32;41.30;100736.81;4923464;29;20130;-83
2023/09/19 07:05:37;;;;;;;3.45;1.70;;;;;;;17.30;41.32;100733.38;4919102;28;20047;-84
2023/09/19 07:08:12;;;;;;;4.40;1.70;;;;;;;17.35;40.76;100744.75;4920787;29;20177;-84
2023/09/19 07:10:41;;;;;;;4.97;1.60;;;;;;;17.32;41.00;100738.69;4915196;28;20055;-84
2023/09/19 07:13:10;;;;;;;6.43;1.60;;;;;;;17.36;41.37;100738.19;4922759;28;20056;-85
2023/09/19 07:15:46;;;;;;;4.65;1.50;;;;;;;17.40;41.17;100745.06;4955824;28;20796;-84
2023/09/19 07:18:16;;;;;;;5.90;1.90;;;;;;;17.41;41.06;100743.16;4937193;29;20051;-85
2023/09/19 07:20:48;;;;;;;5.50;1.90;;;;;;;17.43;41.19;100749.38;4923397;28;20127;-85
2023/09/19 07:23:21;;;;;;;4.20;1.42;;;;;;;17.46;41.26;100750.91;4905212;29;20070;-84
2023/09/19 07:25:49;;;;;;;5.40;1.83;;;;;;;17.47;41.78;100752.66;4923910;28;20051;-83
2023/09/19 07:28:18;;;;;;;3.67;1.52;;;;;;;17.50;41.09;100750.38;4946322;28;20106;-85
2023/09/19 07:30:46;;;;;;;5.40;1.73;;;;;;;17.54;41.32;100762.81;4922437;29;20066;-84
2023/09/19 07:33:14;;;;;;;4.47;1.63;;;;;;;17.56;41.67;100763.50;4926790;29;20638;-85
2023/09/19 07:35:46;;;;;;;3.65;1.60;;;;;;;17.59;41.65;100756.72;4950335;28;20150;-84
2023/09/19 07:38:15;;;;;;;3.40;1.55;;;;;;;17.59;41.63;100765.88;4928222;29;20052;-83
2023/09/19 07:40:44;;;;;;;5.55;1.75;;;;;;;17.67;41.86;100767.72;4930235;29;20067;-83
2023/09/19 07:43:12;;;;;;;4.93;1.50;;;;;;;17.68;41.43;100762.00;4947539;29;20074;-84
2023/09/19 07:45:40;;;;;;;5.10;1.40;;;;;;;17.72;41.68;100763.38;4924902;29;20078;-83
2023/09/19 07:48:14;;;;;;;5.22;1.40;;;;;;;17.77;41.55;100765.63;4940637;28;20342;-83
2023/09/19 07:50:43;;;;;;;4.05;1.50;;;;;;;17.81;41.64;100771.66;4926954;28;20063;-84
2023/09/19 07:53:13;;;;;;;5.70;1.50;;;;;;;17.86;41.62;100769.19;4932375;28;20061;-82
2023/09/19 07:55:42;;;;;;;4.65;1.55;;;;;;;17.88;41.02;100770.75;4915288;29;20610;-83
2023/09/19 07:58:13;;;;;;;4.55;1.45;;;;;;;17.94;40.87;100771.91;4934664;29;20598;-83
2023/09/19 08:00:41;;;;;;;4.20;1.48;;;;;;;17.95;40.93;100766.19;4916362;29;20109;-83
2023/09/19 08:03:14;;;;;;;6.57;1.65;;;;;;;17.97;41.27;100769.63;4916992;29;20062;-82
2023/09/19 08:05:45;;;;;;;5.75;1.70;;;;;;;18.01;40.92;100773.75;4916568;29;20056;-82
2023/09/19 08:08:14;;;;;;;4.43;1.42;;;;;;;18.04;40.99;100776.16;4918165;28;20059;-82
2023/09/19 08:10:43;;;;;;;5.20;1.40;;;;;;;18.06;40.65;100779.56;4937433;29;20118;-82
2023/09/19 08:13:14;;;;;;;4.63;1.50;;;;;;;18.12;40.66;100778.00;4916132;28;20047;-82
2023/09/19 08:15:44;;;;;;;4.20;1.60;;;;;;;18.14;40.59;100782.28;4918408;29;20055;-83
2023/09/19 08:18:13;;;;;;;5.40;1.60;;;;;;;18.15;40.54;100780.38;4916695;29;20059;-84
2023/09/19 08:20:42;;;;;;;3.50;1.50;;;;;;;18.19;40.53;100780.88;4910649;29;20072;-83
2023/09/19 08:23:10;;;;;;;4.45;1.40;;;;;;;18.20;40.84;100783.47;4923840;28;20583;-82
2023/09/19 08:25:39;;;;;;;4.28;1.40;;;;;;;18.22;40.43;100775.84;4907478;29;20055;-82
2023/09/19 08:28:11;;;;;;;3.90;1.45;;;;;;;18.26;40.85;100784.63;4905165;29;20616;-83
2023/09/19 08:30:41;;;;;;;3.63;1.30;;;;;;;18.28;40.56;100780.63;4868618;29;1101141;-83
2023/09/19 08:33:09;;;;;;;4.30;1.38;;;;;;;18.31;41.17;100782.13;4911089;29;20074;-81
2023/09/19 08:35:37;;;;;;;7.63;1.50;;;;;;;18.37;40.85;100795.28;4909970;29;20051;-79
2023/09/19 08:38:06;;;;;;;4.82;1.60;;;;;;;18.42;40.95;100801.09;4929963;28;20719;-82
2023/09/19 08:40:39;;;;;;;4.65;1.60;;;;;;;18.49;40.71;100802.97;4914502;29;20075;-80
2023/09/19 08:43:08;;;;;;;4.85;1.52;;;;;;;18.51;40.95;100788.94;4904426;28;20591;-80
2023/09/19 08:45:37;;;;;;;4.10;1.40;;;;;;;18.57;40.66;100798.38;4906135;29;20586;-82
2023/09/19 08:48:17;;;;;;;5.80;1.60;;;;;;;18.65;40.32;100799.16;4907258;29;20526;-78
2023/09/19 08:50:50;;;;;;;5.18;1.67;;;;;;;18.70;40.05;100804.16;4910617;29;20230;-79
2023/09/19 08:53:27;;;;;;;3.30;1.30;;;;;;;18.74;40.42;100799.94;4910792;29;20058;-80
2023/09/19 08:55:57;;;;;;;4.43;1.30;;;;;;;18.78;40.66;100798.53;4916668;29;20077;-82
2023/09/19 08:58:33;;;;;;;5.05;1.40;;;;;;;18.84;40.28;100790.31;4913107;29;20043;-79
2023/09/19 09:01:02;;;;;;;5.10;1.33;;;;;;;18.86;40.05;100796.53;4910792;29;20503;-82
2023/09/19 09:03:35;;;;;;;4.43;1.30;;;;;;;18.93;39.79;100798.53;4915368;29;20500;-80
2023/09/19 09:06:03;;;;;;;4.00;1.52;;;;;;;18.94;40.19;100795.59;4932425;28;20047;-80
2023/09/19 09:08:32;;;;;;;3.70;1.60;;;;;;;19.00;40.23;100805.03;4919700;29;20070;-85
2023/09/19 09:11:01;;;;;;;2.97;1.23;;;;;;;19.03;39.83;100802.75;4919251;28;20047;-82
2023/09/19 09:13:30;;;;;;;4.47;1.83;;;;;;;19.10;40.00;100798.16;4911230;29;20048;-81
2023/09/19 09:15:59;;;;;;;5.78;1.58;;;;;;;19.14;39.87;100799.47;4915670;28;20122;-79
2023/09/19 09:18:27;;;;;;;3.45;1.33;;;;;;;19.19;39.51;100788.69;4917420;29;20044;-80
2023/09/19 09:20:57;;;;;;;4.82;1.60;;;;;;;19.25;39.28;100779.63;4922432;28;20066;-81
2023/09/19 09:23:25;;;;;;;4.78;1.23;;;;;;;19.27;39.48;100784.97;4926986;29;20047;-79
2023/09/19 09:25:59;;;;;;;5.13;1.58;;;;;;;19.34;39.32;100785.06;4931561;29;20075;-80
2023/09/19 09:28:28;;;;;;;4.13;1.33;;;;;;;19.39;39.40;100786.19;4928530;29;20066;-81
2023/09/19 09:30:57;;;;;;;5.65;1.42;;;;;;;19.41;39.20;100775.78;4915614;29;20051;-81
2023/09/19 09:33:27;;;;;;;4.72;1.50;;;;;;;19.47;38.91;100790.78;4916022;29;20055;-82
2023/09/19 09:36:00;;;;;;;5.57;1.67;;;;;;;19.51;38.92;100781.88;4914882;29;20130;-79
2023/09/19 09:38:32;;;;;;;3.72;1.38;;;;;;;19.56;38.46;100789.59;4916486;28;20062;-80
2023/09/19 09:41:06;;;;;;;2.95;1.38;;;;;;;19.56;38.32;100787.69;4915964;29;20055;-81
2023/09/19 09:43:36;;;;;;;3.30;1.23;;;;;;;19.60;38.15;100780.72;4931265;28;20492;-83
2023/09/19 09:49:16;;;;;;;3.92;1.45;;;;;;;19.66;37.58;100781.84;4883283;29;20059;-83
2023/09/19 09:51:48;;;;;;;4.68;1.38;;;;;;;19.65;38.12;100788.44;4940140;28;20066;-81
2023/09/19 09:54:19;;;;;;;4.75;1.50;;;;;;;19.64;37.95;100772.84;4925605;29;20145;-84
2023/09/19 09:56:58;;;;;;;4.83;1.57;;;;;;;19.68;37.07;100785.28;4920873;29;20055;-84
2023/09/19 09:59:55;;;;;;;4.38;1.38;;;;;;;19.61;37.34;100779.66;4924127;29;20059;-83
2023/09/19 10:02:29;;;;;;;3.80;1.33;;;;;;;19.68;37.53;100782.50;4917185;29;20125;-82
2023/09/19 10:05:13;;;;;;;4.40;1.45;;;;;;;19.67;37.48;100788.25;4934337;29;20054;-81
2023/09/19 10:07:50;;;;;;;3.28;1.50;;;;;;;19.67;37.54;100789.13;4937833;29;20154;-80
2023/09/19 10:10:38;;;;;;;3.63;1.30;;;;;;;19.70;37.09;100788.72;4940649;29;20051;-81
2023/09/19 10:13:12;;;;;;;5.50;1.38;;;;;;;19.69;37.56;100780.59;4932363;29;20044;-82
2023/09/19 10:15:42;;;;;;;3.58;1.50;;;;;;;19.71;37.55;100775.72;4932516;29;20154;-82
2023/09/19 10:18:18;;;;;;;5.85;1.60;;;;;;;19.74;37.68;100770.59;4918282;29;20052;-83
2023/09/19 10:20:48;;;;;;;4.97;1.42;;;;;;;19.75;37.49;100775.09;4920590;29;20419;-82
2023/09/19 10:23:22;;;;;;;4.63;1.45;;;;;;;19.79;37.25;100767.25;4956643;28;20231;-84
2023/09/19 10:25:52;;;;;;;4.00;1.38;;;;;;;19.79;37.47;100767.25;4923037;29;20849;-82
2023/09/19 10:28:22;;;;;;;3.78;1.40;;;;;;;19.81;37.09;100765.97;4919467;28;20537;-83
2023/09/19 10:30:52;;;;;;;4.80;1.50;;;;;;;19.84;37.03;100759.19;4916853;28;20083;-78
2023/09/19 10:33:25;;;;;;;5.95;1.50;;;;;;;19.83;37.29;100758.31;4918037;29;20052;-83
2023/09/19 10:35:55;;;;;;;3.78;1.40;;;;;;;19.85;36.70;100747.03;4914366;28;20130;-79
2023/09/19 10:38:28;;;;;;;4.05;1.85;;;;;;;19.89;36.43;100748.31;4921602;29;20507;-83
2023/09/19 10:40:59;;;;;;;;;;;;;;;19.59;37.42;100740.13;4923069;29;20055;-80
2023/09/19 10:43:31;;;;;;;3.55;1.23;;;;;;;19.88;36.83;100750.25;4938509;29;19931;-81
2023/09/19 10:46:06;;;;;;;5.43;1.58;;;;;;;19.95;36.78;100762.31;4916928;29;20055;-82
2023/09/19 10:48:34;;;;;;;3.55;1.30;;;;;;;19.99;36.48;100762.78;4922741;29;20056;-79
2023/09/19 10:51:06;;;;;;;5.65;1.70;;;;;;;20.02;36.18;100757.72;4929569;29;20213;-82
2023/09/19 10:53:46;;;;;;;3.63;1.50;;;;;;;20.04;35.93;100756.66;4930891;28;20050;-79
2023/09/19 10:56:20;;;;;;;4.40;1.50;;;;;;;20.06;36.39;100758.16;4920546;29;20059;-80
2023/09/19 10:58:49;;;;;;;3.65;1.30;;;;;;;20.09;36.49;100762.47;4929991;28;20063;-80
2023/09/19 11:01:18;;;;;;;4.93;1.52;;;;;;;20.09;36.28;100760.53;4930500;28;20054;-82
2023/09/19 11:03:49;;;;;;;4.78;1.70;;;;;;;20.11;36.06;100755.66;4919260;29;20051;-79
2023/09/19 11:06:20;;;;;;;5.65;1.85;;;;;;;20.11;36.13;100750.09;4919985;29;20531;-82
2023/09/19 11:08:56;;;;;;;4.95;1.70;;;;;;;20.18;35.36;100759.34;4924749;29;20115;-81
2023/09/19 11:11:46;;;;;;;5.35;1.80;;;;;;;20.16;35.57;100767.00;4930568;29;20052;-82
2023/09/19 11:14:38;;;;;;;4.47;1.42;;;;;;;20.18;35.38;100759.34;4962801;28;20055;-79
2023/09/19 11:17:42;;;;;;;5.43;1.60;;;;;;;20.19;35.36;100761.06;4931606;28;20527;-79
2023/09/19 11:23:22;;;;;;;3.08;1.33;;;;;;;20.27;35.59;100752.59;4915973;28;20130;-82
2023/09/19 11:25:54;;;;;;;4.20;1.60;;;;;;;20.29;35.99;100744.03;4910357;29;20153;-83
2023/09/19 11:28:36;;;;;;;4.20;1.52;;;;;;;20.32;35.45;100758.41;4935925;28;20047;-81
2023/09/19 11:31:56;;;;;;;4.18;1.50;;;;;;;20.33;35.39;100754.56;4915158;29;20051;-81
2023/09/19 11:35:08;;;;;;;3.50;1.17;;;;;;;20.33;35.15;100767.59;4904285;29;20158;-80
2023/09/19 11:38:11;;;;;;;4.75;1.60;;;;;;;20.38;35.07;100762.28;4948940;28;20056;-80
2023/09/19 11:40:39;;;;;;;5.55;1.60;;;;;;;20.44;35.31;100760.63;4929742;28;20058;-80
2023/09/19 11:43:35;;;;;;;4.47;1.40;;;;;;;20.48;34.35;100764.72;4913156;29;20827;-79
2023/09/19 11:46:10;;;;;;;5.13;1.60;;;;;;;20.52;34.26;100768.84;4926774;28;20621;-79
2023/09/19 11:48:44;;;;;;;3.15;1.42;;;;;;;20.54;34.96;100752.78;4915007;29;20051;-81
2023/09/19 11:51:22;;;;;;;4.18;1.60;;;;;;;20.57;34.72;100756.03;4933329;28;20051;-81
2023/09/19 11:53:51;;;;;;;3.08;1.35;;;;;;;20.57;35.02;100750.47;4933340;28;20058;-80